sensor_id;sensor_type;location;lat;lon;timestamp;P1;durP1;ratioP1;P2;durP2;ratioP2
26540;SDS011;14206;50.202;10.948;2022-11-20T00:01:19;18.20;;;10.65;;
26540;SDS011;14206;50.202;10.948;2022-11-20T00:03:51;17.17;;;10.18;;
26540;SDS011;14206;50.202;10.948;2022-11-20T00:10:09;14.35;;;8.35;;
26540;SDS011;14206;50.202;10.948;2022-11-20T00:12:57;11.82;;;7.75;;
26540;SDS011;14206;50.202;10.948;2022-11-20T00:15:24;13.57;;;7.90;;
26540;SDS011;14206;50.202;10.948;2022-11-20T00:17:51;12.35;;;7.45;;
26540;SDS011;14206;50.202;10.948;2022-11-20T00:20:18;12.48;;;7.47;;
26540;SDS011;14206;50.202;10.948;2022-11-20T00:22:45;12.90;;;7.38;;
26540;SDS011;14206;50.202;10.948;2022-11-20T00:25:12;11.95;;;7.55;;
26540;SDS011;14206;50.202;10.948;2022-11-20T00:27:39;11.32;;;7.28;;
26540;SDS011;14206;50.202;10.948;2022-11-20T00:30:06;12.43;;;7.35;;
26540;SDS011;14206;50.202;10.948;2022-11-20T00:32:39;12.17;;;7.23;;
26540;SDS011;14206;50.202;10.948;2022-11-20T00:35:06;11.45;;;7.25;;
26540;SDS011;14206;50.202;10.948;2022-11-20T00:37:33;12.85;;;7.50;;
26540;SDS011;14206;50.202;10.948;2022-11-20T00:40:00;12.15;;;6.97;;
26540;SDS011;14206;50.202;10.948;2022-11-20T00:42:27;12.00;;;7.22;;
26540;SDS011;14206;50.202;10.948;2022-11-20T00:44:53;12.07;;;7.47;;
26540;SDS011;14206;50.202;10.948;2022-11-20T00:47:20;10.80;;;7.00;;
26540;SDS011;14206;50.202;10.948;2022-11-20T00:49:47;10.38;;;6.63;;
26540;SDS011;14206;50.202;10.948;2022-11-20T00:52:14;12.18;;;7.32;;
26540;SDS011;14206;50.202;10.948;2022-11-20T00:54:41;13.85;;;7.85;;
26540;SDS011;14206;50.202;10.948;2022-11-20T00:57:08;11.23;;;7.03;;
26540;SDS011;14206;50.202;10.948;2022-11-20T00:59:34;13.57;;;7.18;;
26540;SDS011;14206;50.202;10.948;2022-11-20T01:02:01;12.60;;;6.97;;
26540;SDS011;14206;50.202;10.948;2022-11-20T01:04:28;10.77;;;6.30;;
26540;SDS011;14206;50.202;10.948;2022-11-20T01:06:55;11.70;;;6.95;;
26540;SDS011;14206;50.202;10.948;2022-11-20T01:09:21;11.20;;;6.72;;
26540;SDS011;14206;50.202;10.948;2022-11-20T01:11:48;11.75;;;7.20;;
26540;SDS011;14206;50.202;10.948;2022-11-20T01:14:17;9.98;;;6.03;;
26540;SDS011;14206;50.202;10.948;2022-11-20T01:16:47;9.75;;;5.93;;
26540;SDS011;14206;50.202;10.948;2022-11-20T01:19:17;9.70;;;6.03;;
26540;SDS011;14206;50.202;10.948;2022-11-20T01:21:48;9.73;;;6.10;;
26540;SDS011;14206;50.202;10.948;2022-11-20T01:24:19;10.95;;;6.47;;
26540;SDS011;14206;50.202;10.948;2022-11-20T01:26:48;10.10;;;5.82;;
26540;SDS011;14206;50.202;10.948;2022-11-20T01:29:17;10.27;;;6.30;;
26540;SDS011;14206;50.202;10.948;2022-11-20T01:31:50;10.73;;;6.40;;
26540;SDS011;14206;50.202;10.948;2022-11-20T01:34:19;9.40;;;6.30;;
26540;SDS011;14206;50.202;10.948;2022-11-20T01:36:46;9.95;;;6.50;;
26540;SDS011;14206;50.202;10.948;2022-11-20T01:39:15;12.68;;;7.43;;
26540;SDS011;14206;50.202;10.948;2022-11-20T01:41:44;11.85;;;7.03;;
26540;SDS011;14206;50.202;10.948;2022-11-20T01:47:31;20.25;;;11.27;;
26540;SDS011;14206;50.202;10.948;2022-11-20T01:52:56;16.60;;;10.05;;
26540;SDS011;14206;50.202;10.948;2022-11-20T01:55:30;17.27;;;9.90;;
26540;SDS011;14206;50.202;10.948;2022-11-20T01:58:02;17.77;;;9.32;;
26540;SDS011;14206;50.202;10.948;2022-11-20T02:00:31;16.55;;;10.07;;
26540;SDS011;14206;50.202;10.948;2022-11-20T02:02:59;16.92;;;9.68;;
26540;SDS011;14206;50.202;10.948;2022-11-20T02:05:52;14.73;;;9.23;;
26540;SDS011;14206;50.202;10.948;2022-11-20T02:08:24;15.30;;;9.55;;
26540;SDS011;14206;50.202;10.948;2022-11-20T02:10:50;16.70;;;10.55;;
26540;SDS011;14206;50.202;10.948;2022-11-20T02:13:17;19.02;;;11.30;;
26540;SDS011;14206;50.202;10.948;2022-11-20T02:16:03;18.45;;;10.93;;
26540;SDS011;14206;50.202;10.948;2022-11-20T02:18:34;17.58;;;10.55;;
26540;SDS011;14206;50.202;10.948;2022-11-20T02:21:06;18.33;;;10.60;;
26540;SDS011;14206;50.202;10.948;2022-11-20T02:26:50;17.10;;;10.25;;
26540;SDS011;14206;50.202;10.948;2022-11-20T02:29:24;17.17;;;10.55;;
26540;SDS011;14206;50.202;10.948;2022-11-20T02:31:54;14.85;;;9.18;;
26540;SDS011;14206;50.202;10.948;2022-11-20T02:34:22;15.07;;;9.18;;
26540;SDS011;14206;50.202;10.948;2022-11-20T02:36:49;17.20;;;10.18;;
26540;SDS011;14206;50.202;10.948;2022-11-20T02:39:17;15.95;;;9.48;;
26540;SDS011;14206;50.202;10.948;2022-11-20T02:41:47;15.05;;;9.70;;
26540;SDS011;14206;50.202;10.948;2022-11-20T02:44:14;15.73;;;9.40;;
26540;SDS011;14206;50.202;10.948;2022-11-20T02:46:41;16.90;;;9.68;;
26540;SDS011;14206;50.202;10.948;2022-11-20T02:49:08;19.75;;;11.02;;
26540;SDS011;14206;50.202;10.948;2022-11-20T02:51:34;16.08;;;10.30;;
26540;SDS011;14206;50.202;10.948;2022-11-20T02:54:01;18.27;;;10.18;;
26540;SDS011;14206;50.202;10.948;2022-11-20T02:56:29;17.60;;;10.52;;
26540;SDS011;14206;50.202;10.948;2022-11-20T02:58:56;17.90;;;10.55;;
26540;SDS011;14206;50.202;10.948;2022-11-20T03:01:23;17.15;;;10.65;;
26540;SDS011;14206;50.202;10.948;2022-11-20T03:03:50;16.67;;;9.73;;
26540;SDS011;14206;50.202;10.948;2022-11-20T03:06:18;14.77;;;9.05;;
26540;SDS011;14206;50.202;10.948;2022-11-20T03:08:45;16.13;;;9.65;;
26540;SDS011;14206;50.202;10.948;2022-11-20T03:11:12;15.82;;;9.45;;
26540;SDS011;14206;50.202;10.948;2022-11-20T03:13:38;13.95;;;8.77;;
26540;SDS011;14206;50.202;10.948;2022-11-20T03:16:09;15.30;;;8.75;;
26540;SDS011;14206;50.202;10.948;2022-11-20T03:18:38;16.02;;;9.77;;
26540;SDS011;14206;50.202;10.948;2022-11-20T03:21:06;14.32;;;9.02;;
26540;SDS011;14206;50.202;10.948;2022-11-20T03:23:33;13.98;;;8.65;;
26540;SDS011;14206;50.202;10.948;2022-11-20T03:26:10;15.93;;;9.52;;
26540;SDS011;14206;50.202;10.948;2022-11-20T03:28:38;15.30;;;9.25;;
26540;SDS011;14206;50.202;10.948;2022-11-20T03:31:09;17.20;;;10.45;;
26540;SDS011;14206;50.202;10.948;2022-11-20T03:33:40;19.15;;;10.77;;
26540;SDS011;14206;50.202;10.948;2022-11-20T03:36:08;16.73;;;10.55;;
26540;SDS011;14206;50.202;10.948;2022-11-20T03:38:37;20.23;;;12.18;;
26540;SDS011;14206;50.202;10.948;2022-11-20T03:41:06;18.50;;;11.55;;
26540;SDS011;14206;50.202;10.948;2022-11-20T03:43:34;16.33;;;10.73;;
26540;SDS011;14206;50.202;10.948;2022-11-20T03:46:01;18.98;;;11.50;;
26540;SDS011;14206;50.202;10.948;2022-11-20T03:48:29;17.15;;;10.80;;
26540;SDS011;14206;50.202;10.948;2022-11-20T03:51:18;21.08;;;11.55;;
26540;SDS011;14206;50.202;10.948;2022-11-20T03:53:48;21.38;;;12.48;;
26540;SDS011;14206;50.202;10.948;2022-11-20T03:56:17;23.63;;;13.73;;
26540;SDS011;14206;50.202;10.948;2022-11-20T03:58:45;20.50;;;12.32;;
26540;SDS011;14206;50.202;10.948;2022-11-20T04:01:13;21.58;;;12.38;;
26540;SDS011;14206;50.202;10.948;2022-11-20T04:03:41;18.50;;;11.52;;
26540;SDS011;14206;50.202;10.948;2022-11-20T04:08:36;14.57;;;9.70;;
26540;SDS011;14206;50.202;10.948;2022-11-20T04:11:13;14.38;;;9.15;;
26540;SDS011;14206;50.202;10.948;2022-11-20T04:13:40;15.82;;;9.25;;
26540;SDS011;14206;50.202;10.948;2022-11-20T04:16:09;15.50;;;9.38;;
26540;SDS011;14206;50.202;10.948;2022-11-20T04:18:36;15.73;;;9.00;;
26540;SDS011;14206;50.202;10.948;2022-11-20T04:21:03;16.52;;;9.55;;
26540;SDS011;14206;50.202;10.948;2022-11-20T04:23:31;20.88;;;11.20;;
26540;SDS011;14206;50.202;10.948;2022-11-20T04:26:08;18.10;;;11.23;;
26540;SDS011;14206;50.202;10.948;2022-11-20T04:28:36;17.92;;;10.77;;
26540;SDS011;14206;50.202;10.948;2022-11-20T04:31:04;20.88;;;12.52;;
26540;SDS011;14206;50.202;10.948;2022-11-20T04:33:33;19.48;;;11.73;;
26540;SDS011;14206;50.202;10.948;2022-11-20T04:36:01;21.45;;;12.05;;
26540;SDS011;14206;50.202;10.948;2022-11-20T04:38:39;20.45;;;11.90;;
26540;SDS011;14206;50.202;10.948;2022-11-20T04:41:07;17.23;;;10.73;;
26540;SDS011;14206;50.202;10.948;2022-11-20T04:43:37;16.85;;;10.43;;
26540;SDS011;14206;50.202;10.948;2022-11-20T04:46:04;15.63;;;9.38;;
26540;SDS011;14206;50.202;10.948;2022-11-20T04:48:30;18.70;;;11.65;;
26540;SDS011;14206;50.202;10.948;2022-11-20T04:50:57;18.05;;;10.90;;
26540;SDS011;14206;50.202;10.948;2022-11-20T04:53:29;16.20;;;10.23;;
26540;SDS011;14206;50.202;10.948;2022-11-20T04:56:04;16.90;;;10.45;;
26540;SDS011;14206;50.202;10.948;2022-11-20T04:58:33;17.85;;;11.40;;
26540;SDS011;14206;50.202;10.948;2022-11-20T05:01:11;17.23;;;10.52;;
26540;SDS011;14206;50.202;10.948;2022-11-20T05:03:41;16.60;;;10.30;;
26540;SDS011;14206;50.202;10.948;2022-11-20T05:06:09;16.80;;;10.18;;
26540;SDS011;14206;50.202;10.948;2022-11-20T05:08:37;16.58;;;10.70;;
26540;SDS011;14206;50.202;10.948;2022-11-20T05:11:06;16.08;;;9.93;;
26540;SDS011;14206;50.202;10.948;2022-11-20T05:13:34;16.92;;;10.55;;
26540;SDS011;14206;50.202;10.948;2022-11-20T05:16:02;17.35;;;10.50;;
26540;SDS011;14206;50.202;10.948;2022-11-20T05:18:38;15.02;;;9.73;;
26540;SDS011;14206;50.202;10.948;2022-11-20T05:21:05;15.63;;;9.40;;
26540;SDS011;14206;50.202;10.948;2022-11-20T05:23:34;15.13;;;8.80;;
26540;SDS011;14206;50.202;10.948;2022-11-20T05:26:01;14.93;;;9.18;;
26540;SDS011;14206;50.202;10.948;2022-11-20T05:28:28;16.85;;;9.80;;
26540;SDS011;14206;50.202;10.948;2022-11-20T05:31:03;17.35;;;10.55;;
26540;SDS011;14206;50.202;10.948;2022-11-20T05:33:32;16.02;;;10.07;;
26540;SDS011;14206;50.202;10.948;2022-11-20T05:35:59;14.30;;;9.00;;
26540;SDS011;14206;50.202;10.948;2022-11-20T05:38:26;16.83;;;10.35;;
26540;SDS011;14206;50.202;10.948;2022-11-20T05:40:53;16.73;;;10.15;;
26540;SDS011;14206;50.202;10.948;2022-11-20T05:43:20;19.27;;;11.10;;
26540;SDS011;14206;50.202;10.948;2022-11-20T05:45:53;15.68;;;10.15;;
26540;SDS011;14206;50.202;10.948;2022-11-20T05:48:20;16.13;;;10.25;;
26540;SDS011;14206;50.202;10.948;2022-11-20T05:50:48;17.50;;;10.43;;
26540;SDS011;14206;50.202;10.948;2022-11-20T05:53:14;18.38;;;11.07;;
26540;SDS011;14206;50.202;10.948;2022-11-20T05:55:42;18.88;;;11.02;;
26540;SDS011;14206;50.202;10.948;2022-11-20T05:58:08;14.40;;;9.50;;
26540;SDS011;14206;50.202;10.948;2022-11-20T06:00:35;16.45;;;9.88;;
26540;SDS011;14206;50.202;10.948;2022-11-20T06:03:03;16.95;;;10.05;;
26540;SDS011;14206;50.202;10.948;2022-11-20T06:05:30;16.05;;;10.05;;
26540;SDS011;14206;50.202;10.948;2022-11-20T06:07:56;16.33;;;9.93;;
26540;SDS011;14206;50.202;10.948;2022-11-20T06:10:23;14.93;;;9.77;;
26540;SDS011;14206;50.202;10.948;2022-11-20T06:12:50;17.10;;;10.00;;
26540;SDS011;14206;50.202;10.948;2022-11-20T06:15:17;17.85;;;10.20;;
26540;SDS011;14206;50.202;10.948;2022-11-20T06:17:44;18.05;;;11.00;;
26540;SDS011;14206;50.202;10.948;2022-11-20T06:20:10;16.90;;;10.35;;
26540;SDS011;14206;50.202;10.948;2022-11-20T06:22:37;17.23;;;10.88;;
26540;SDS011;14206;50.202;10.948;2022-11-20T06:25:04;17.05;;;10.68;;
26540;SDS011;14206;50.202;10.948;2022-11-20T06:27:31;18.27;;;11.18;;
26540;SDS011;14206;50.202;10.948;2022-11-20T06:29:57;19.88;;;11.43;;
26540;SDS011;14206;50.202;10.948;2022-11-20T06:32:24;19.50;;;12.15;;
26540;SDS011;14206;50.202;10.948;2022-11-20T06:34:51;19.70;;;11.63;;
26540;SDS011;14206;50.202;10.948;2022-11-20T06:37:18;19.70;;;11.93;;
26540;SDS011;14206;50.202;10.948;2022-11-20T06:39:44;18.58;;;11.73;;
26540;SDS011;14206;50.202;10.948;2022-11-20T06:42:11;18.95;;;11.45;;
26540;SDS011;14206;50.202;10.948;2022-11-20T06:44:38;17.85;;;10.70;;
26540;SDS011;14206;50.202;10.948;2022-11-20T06:47:05;18.90;;;10.68;;
26540;SDS011;14206;50.202;10.948;2022-11-20T06:49:31;16.08;;;10.40;;
26540;SDS011;14206;50.202;10.948;2022-11-20T06:52:00;15.52;;;9.98;;
26540;SDS011;14206;50.202;10.948;2022-11-20T06:54:27;16.38;;;9.88;;
26540;SDS011;14206;50.202;10.948;2022-11-20T06:56:54;18.30;;;10.57;;
26540;SDS011;14206;50.202;10.948;2022-11-20T06:59:21;17.67;;;10.18;;
26540;SDS011;14206;50.202;10.948;2022-11-20T07:01:48;18.88;;;11.40;;
26540;SDS011;14206;50.202;10.948;2022-11-20T07:04:15;18.95;;;10.80;;
26540;SDS011;14206;50.202;10.948;2022-11-20T07:06:42;20.58;;;11.30;;
26540;SDS011;14206;50.202;10.948;2022-11-20T07:09:09;18.50;;;10.82;;
26540;SDS011;14206;50.202;10.948;2022-11-20T07:11:38;19.52;;;11.25;;
26540;SDS011;14206;50.202;10.948;2022-11-20T07:14:04;15.88;;;10.18;;
26540;SDS011;14206;50.202;10.948;2022-11-20T07:16:32;18.35;;;11.10;;
26540;SDS011;14206;50.202;10.948;2022-11-20T07:18:58;17.88;;;10.80;;
26540;SDS011;14206;50.202;10.948;2022-11-20T07:21:25;20.45;;;11.73;;
26540;SDS011;14206;50.202;10.948;2022-11-20T07:23:52;17.05;;;10.85;;
26540;SDS011;14206;50.202;10.948;2022-11-20T07:26:19;20.38;;;11.48;;
26540;SDS011;14206;50.202;10.948;2022-11-20T07:28:46;19.55;;;11.68;;
26540;SDS011;14206;50.202;10.948;2022-11-20T07:31:12;19.50;;;11.55;;
26540;SDS011;14206;50.202;10.948;2022-11-20T07:33:44;18.20;;;11.20;;
26540;SDS011;14206;50.202;10.948;2022-11-20T07:36:11;19.30;;;11.88;;
26540;SDS011;14206;50.202;10.948;2022-11-20T07:38:38;19.02;;;11.75;;
26540;SDS011;14206;50.202;10.948;2022-11-20T07:41:05;18.90;;;11.82;;
26540;SDS011;14206;50.202;10.948;2022-11-20T07:43:31;18.80;;;11.57;;
26540;SDS011;14206;50.202;10.948;2022-11-20T07:46:06;19.10;;;11.90;;
26540;SDS011;14206;50.202;10.948;2022-11-20T07:48:32;20.80;;;13.05;;
26540;SDS011;14206;50.202;10.948;2022-11-20T07:50:59;21.50;;;13.52;;
26540;SDS011;14206;50.202;10.948;2022-11-20T07:53:26;21.30;;;13.18;;
26540;SDS011;14206;50.202;10.948;2022-11-20T07:55:53;19.63;;;12.15;;
26540;SDS011;14206;50.202;10.948;2022-11-20T07:58:20;18.00;;;11.50;;
26540;SDS011;14206;50.202;10.948;2022-11-20T08:00:47;22.35;;;14.25;;
26540;SDS011;14206;50.202;10.948;2022-11-20T08:03:14;23.92;;;14.55;;
26540;SDS011;14206;50.202;10.948;2022-11-20T08:05:49;18.92;;;12.00;;
26540;SDS011;14206;50.202;10.948;2022-11-20T08:08:16;18.60;;;11.98;;
26540;SDS011;14206;50.202;10.948;2022-11-20T08:10:42;20.23;;;12.40;;
26540;SDS011;14206;50.202;10.948;2022-11-20T08:13:09;20.45;;;12.77;;
26540;SDS011;14206;50.202;10.948;2022-11-20T08:15:54;20.05;;;12.35;;
26540;SDS011;14206;50.202;10.948;2022-11-20T08:18:21;16.40;;;10.88;;
26540;SDS011;14206;50.202;10.948;2022-11-20T08:20:57;17.20;;;11.25;;
26540;SDS011;14206;50.202;10.948;2022-11-20T08:23:24;16.55;;;10.90;;
26540;SDS011;14206;50.202;10.948;2022-11-20T08:25:51;16.92;;;10.82;;
26540;SDS011;14206;50.202;10.948;2022-11-20T08:28:18;19.48;;;12.43;;
26540;SDS011;14206;50.202;10.948;2022-11-20T08:30:47;28.02;;;11.70;;
26540;SDS011;14206;50.202;10.948;2022-11-20T08:33:16;18.45;;;12.15;;
26540;SDS011;14206;50.202;10.948;2022-11-20T08:35:43;19.13;;;11.80;;
26540;SDS011;14206;50.202;10.948;2022-11-20T08:38:11;19.55;;;12.23;;
26540;SDS011;14206;50.202;10.948;2022-11-20T08:40:38;19.58;;;13.05;;
26540;SDS011;14206;50.202;10.948;2022-11-20T08:43:05;18.92;;;12.00;;
26540;SDS011;14206;50.202;10.948;2022-11-20T08:45:31;18.95;;;12.38;;
26540;SDS011;14206;50.202;10.948;2022-11-20T08:48:03;19.23;;;12.30;;
26540;SDS011;14206;50.202;10.948;2022-11-20T08:50:30;22.92;;;14.77;;
26540;SDS011;14206;50.202;10.948;2022-11-20T08:53:03;21.30;;;13.85;;
26540;SDS011;14206;50.202;10.948;2022-11-20T08:55:31;22.48;;;14.55;;
26540;SDS011;14206;50.202;10.948;2022-11-20T08:57:58;21.48;;;13.32;;
26540;SDS011;14206;50.202;10.948;2022-11-20T09:00:29;20.52;;;12.75;;
26540;SDS011;14206;50.202;10.948;2022-11-20T09:02:56;20.45;;;12.57;;
26540;SDS011;14206;50.202;10.948;2022-11-20T09:05:24;19.13;;;12.38;;
26540;SDS011;14206;50.202;10.948;2022-11-20T09:07:51;19.23;;;11.68;;
26540;SDS011;14206;50.202;10.948;2022-11-20T09:10:18;18.10;;;12.07;;
26540;SDS011;14206;50.202;10.948;2022-11-20T09:12:50;18.85;;;12.55;;
26540;SDS011;14206;50.202;10.948;2022-11-20T09:15:18;21.33;;;13.88;;
26540;SDS011;14206;50.202;10.948;2022-11-20T09:17:52;21.83;;;15.57;;
26540;SDS011;14206;50.202;10.948;2022-11-20T09:20:19;24.80;;;16.02;;
26540;SDS011;14206;50.202;10.948;2022-11-20T09:22:47;21.20;;;13.73;;
26540;SDS011;14206;50.202;10.948;2022-11-20T09:25:14;19.27;;;12.68;;
26540;SDS011;14206;50.202;10.948;2022-11-20T09:27:41;20.02;;;12.38;;
26540;SDS011;14206;50.202;10.948;2022-11-20T09:30:10;17.98;;;11.70;;
26540;SDS011;14206;50.202;10.948;2022-11-20T09:32:38;18.55;;;11.68;;
26540;SDS011;14206;50.202;10.948;2022-11-20T09:35:06;18.42;;;11.85;;
26540;SDS011;14206;50.202;10.948;2022-11-20T09:37:33;19.20;;;11.68;;
26540;SDS011;14206;50.202;10.948;2022-11-20T09:40:00;17.55;;;10.65;;
26540;SDS011;14206;50.202;10.948;2022-11-20T09:45:24;17.60;;;11.30;;
26540;SDS011;14206;50.202;10.948;2022-11-20T09:50:44;16.75;;;11.00;;
26540;SDS011;14206;50.202;10.948;2022-11-20T09:55:54;17.25;;;10.85;;
26540;SDS011;14206;50.202;10.948;2022-11-20T09:58:26;19.73;;;12.13;;
26540;SDS011;14206;50.202;10.948;2022-11-20T10:03:41;16.60;;;10.52;;
26540;SDS011;14206;50.202;10.948;2022-11-20T10:06:21;19.80;;;11.07;;
26540;SDS011;14206;50.202;10.948;2022-11-20T10:14:18;19.10;;;11.43;;
26540;SDS011;14206;50.202;10.948;2022-11-20T10:23:24;19.08;;;11.98;;
26540;SDS011;14206;50.202;10.948;2022-11-20T10:25:43;19.10;;;11.90;;
26540;SDS011;14206;50.202;10.948;2022-11-20T10:30:39;21.48;;;13.32;;
26540;SDS011;14206;50.202;10.948;2022-11-20T10:36:08;22.92;;;13.98;;
26540;SDS011;14206;50.202;10.948;2022-11-20T10:38:47;22.73;;;14.48;;
26540;SDS011;14206;50.202;10.948;2022-11-20T10:41:24;21.23;;;13.38;;
26540;SDS011;14206;50.202;10.948;2022-11-20T10:46:39;21.70;;;13.57;;
26540;SDS011;14206;50.202;10.948;2022-11-20T10:49:16;20.60;;;13.30;;
26540;SDS011;14206;50.202;10.948;2022-11-20T11:00:04;19.67;;;12.73;;
26540;SDS011;14206;50.202;10.948;2022-11-20T11:05:17;21.58;;;13.52;;
26540;SDS011;14206;50.202;10.948;2022-11-20T11:07:52;20.50;;;13.32;;
26540;SDS011;14206;50.202;10.948;2022-11-20T11:10:24;24.40;;;15.45;;
26540;SDS011;14206;50.202;10.948;2022-11-20T11:12:54;24.02;;;14.50;;
26540;SDS011;14206;50.202;10.948;2022-11-20T11:15:29;28.67;;;16.88;;
26540;SDS011;14206;50.202;10.948;2022-11-20T11:18:03;24.92;;;15.95;;
26540;SDS011;14206;50.202;10.948;2022-11-20T11:20:31;22.85;;;14.73;;
26540;SDS011;14206;50.202;10.948;2022-11-20T11:22:58;26.67;;;16.83;;
26540;SDS011;14206;50.202;10.948;2022-11-20T11:27:58;26.20;;;15.93;;
26540;SDS011;14206;50.202;10.948;2022-11-20T11:30:28;21.40;;;13.88;;
26540;SDS011;14206;50.202;10.948;2022-11-20T11:33:08;23.48;;;14.43;;
26540;SDS011;14206;50.202;10.948;2022-11-20T11:35:45;22.58;;;14.27;;
26540;SDS011;14206;50.202;10.948;2022-11-20T11:38:17;23.70;;;14.95;;
26540;SDS011;14206;50.202;10.948;2022-11-20T11:40:48;25.33;;;16.17;;
26540;SDS011;14206;50.202;10.948;2022-11-20T11:43:25;26.45;;;15.88;;
26540;SDS011;14206;50.202;10.948;2022-11-20T11:46:34;24.92;;;15.98;;
26540;SDS011;14206;50.202;10.948;2022-11-20T11:51:33;29.35;;;18.30;;
26540;SDS011;14206;50.202;10.948;2022-11-20T11:54:17;28.55;;;18.38;;
26540;SDS011;14206;50.202;10.948;2022-11-20T11:56:50;27.38;;;16.45;;
26540;SDS011;14206;50.202;10.948;2022-11-20T11:59:27;23.60;;;14.55;;
26540;SDS011;14206;50.202;10.948;2022-11-20T12:02:15;27.60;;;16.02;;
26540;SDS011;14206;50.202;10.948;2022-11-20T12:04:57;30.10;;;18.67;;
26540;SDS011;14206;50.202;10.948;2022-11-20T12:10:44;33.47;;;18.80;;
26540;SDS011;14206;50.202;10.948;2022-11-20T12:13:20;30.92;;;19.27;;
26540;SDS011;14206;50.202;10.948;2022-11-20T12:15:50;28.50;;;17.88;;
26540;SDS011;14206;50.202;10.948;2022-11-20T12:18:18;25.10;;;16.67;;
26540;SDS011;14206;50.202;10.948;2022-11-20T12:23:44;28.40;;;17.80;;
26540;SDS011;14206;50.202;10.948;2022-11-20T12:26:38;30.13;;;18.90;;
26540;SDS011;14206;50.202;10.948;2022-11-20T12:35:42;29.23;;;18.58;;
26540;SDS011;14206;50.202;10.948;2022-11-20T12:38:33;30.98;;;19.30;;
26540;SDS011;14206;50.202;10.948;2022-11-20T12:53:05;33.60;;;20.83;;
26540;SDS011;14206;50.202;10.948;2022-11-20T12:58:34;34.97;;;21.58;;
26540;SDS011;14206;50.202;10.948;2022-11-20T13:01:07;31.92;;;20.58;;
26540;SDS011;14206;50.202;10.948;2022-11-20T13:06:46;30.15;;;20.27;;
26540;SDS011;14206;50.202;10.948;2022-11-20T13:09:15;31.75;;;19.38;;
26540;SDS011;14206;50.202;10.948;2022-11-20T13:11:47;27.90;;;17.80;;
26540;SDS011;14206;50.202;10.948;2022-11-20T13:17:20;24.60;;;16.30;;
26540;SDS011;14206;50.202;10.948;2022-11-20T13:20:05;25.83;;;16.55;;
26540;SDS011;14206;50.202;10.948;2022-11-20T13:22:45;27.42;;;17.27;;
26540;SDS011;14206;50.202;10.948;2022-11-20T13:28:01;37.55;;;23.63;;
26540;SDS011;14206;50.202;10.948;2022-11-20T13:30:31;33.15;;;22.05;;
26540;SDS011;14206;50.202;10.948;2022-11-20T13:33:03;34.30;;;21.40;;
26540;SDS011;14206;50.202;10.948;2022-11-20T13:35:35;31.67;;;21.20;;
26540;SDS011;14206;50.202;10.948;2022-11-20T13:38:10;32.25;;;20.65;;
26540;SDS011;14206;50.202;10.948;2022-11-20T13:41:00;35.08;;;21.33;;
26540;SDS011;14206;50.202;10.948;2022-11-20T13:43:51;32.63;;;20.73;;
26540;SDS011;14206;50.202;10.948;2022-11-20T13:46:18;32.88;;;21.10;;
26540;SDS011;14206;50.202;10.948;2022-11-20T13:48:51;30.05;;;18.85;;
26540;SDS011;14206;50.202;10.948;2022-11-20T13:53:57;28.48;;;17.27;;
26540;SDS011;14206;50.202;10.948;2022-11-20T13:56:39;25.98;;;16.88;;
26540;SDS011;14206;50.202;10.948;2022-11-20T13:59:57;26.58;;;16.75;;
26540;SDS011;14206;50.202;10.948;2022-11-20T14:02:36;23.40;;;14.45;;
26540;SDS011;14206;50.202;10.948;2022-11-20T14:05:03;29.38;;;18.13;;
26540;SDS011;14206;50.202;10.948;2022-11-20T14:07:34;34.70;;;21.20;;
26540;SDS011;14206;50.202;10.948;2022-11-20T14:10:03;34.00;;;20.42;;
26540;SDS011;14206;50.202;10.948;2022-11-20T14:12:32;27.00;;;17.10;;
26540;SDS011;14206;50.202;10.948;2022-11-20T14:14:59;26.48;;;17.35;;
26540;SDS011;14206;50.202;10.948;2022-11-20T14:17:31;29.55;;;18.77;;
26540;SDS011;14206;50.202;10.948;2022-11-20T14:20:02;31.85;;;20.20;;
26540;SDS011;14206;50.202;10.948;2022-11-20T14:22:32;28.92;;;18.17;;
26540;SDS011;14206;50.202;10.948;2022-11-20T14:27:42;23.95;;;14.93;;
26540;SDS011;14206;50.202;10.948;2022-11-20T14:30:15;23.08;;;14.40;;
26540;SDS011;14206;50.202;10.948;2022-11-20T14:32:45;23.08;;;13.63;;
26540;SDS011;14206;50.202;10.948;2022-11-20T14:35:16;22.83;;;13.95;;
26540;SDS011;14206;50.202;10.948;2022-11-20T14:37:49;22.15;;;13.80;;
26540;SDS011;14206;50.202;10.948;2022-11-20T14:40:33;23.07;;;14.07;;
26540;SDS011;14206;50.202;10.948;2022-11-20T14:43:04;23.08;;;13.82;;
26540;SDS011;14206;50.202;10.948;2022-11-20T14:45:50;20.95;;;13.13;;
26540;SDS011;14206;50.202;10.948;2022-11-20T14:48:29;21.00;;;12.57;;
26540;SDS011;14206;50.202;10.948;2022-11-20T14:51:09;20.42;;;12.50;;
26540;SDS011;14206;50.202;10.948;2022-11-20T14:53:37;20.40;;;11.90;;
26540;SDS011;14206;50.202;10.948;2022-11-20T14:56:04;21.42;;;12.73;;
26540;SDS011;14206;50.202;10.948;2022-11-20T14:58:32;23.23;;;14.60;;
26540;SDS011;14206;50.202;10.948;2022-11-20T15:01:05;22.30;;;13.77;;
26540;SDS011;14206;50.202;10.948;2022-11-20T15:03:38;25.00;;;15.98;;
26540;SDS011;14206;50.202;10.948;2022-11-20T15:06:07;26.42;;;16.13;;
26540;SDS011;14206;50.202;10.948;2022-11-20T15:08:37;24.00;;;14.93;;
26540;SDS011;14206;50.202;10.948;2022-11-20T15:11:14;26.90;;;16.65;;
26540;SDS011;14206;50.202;10.948;2022-11-20T15:13:49;30.02;;;18.30;;
26540;SDS011;14206;50.202;10.948;2022-11-20T15:16:20;28.27;;;17.27;;
26540;SDS011;14206;50.202;10.948;2022-11-20T15:18:49;25.15;;;15.75;;
26540;SDS011;14206;50.202;10.948;2022-11-20T15:21:17;23.23;;;14.57;;
26540;SDS011;14206;50.202;10.948;2022-11-20T15:23:46;19.80;;;13.23;;
26540;SDS011;14206;50.202;10.948;2022-11-20T15:26:15;24.25;;;15.00;;
26540;SDS011;14206;50.202;10.948;2022-11-20T15:28:52;21.05;;;13.10;;
26540;SDS011;14206;50.202;10.948;2022-11-20T15:31:20;20.45;;;12.75;;
26540;SDS011;14206;50.202;10.948;2022-11-20T15:33:48;18.67;;;11.85;;
26540;SDS011;14206;50.202;10.948;2022-11-20T15:36:16;23.02;;;14.85;;
26540;SDS011;14206;50.202;10.948;2022-11-20T15:38:43;25.83;;;16.65;;
26540;SDS011;14206;50.202;10.948;2022-11-20T15:41:10;25.25;;;16.92;;
26540;SDS011;14206;50.202;10.948;2022-11-20T15:43:37;27.13;;;16.15;;
26540;SDS011;14206;50.202;10.948;2022-11-20T15:46:05;22.58;;;14.25;;
26540;SDS011;14206;50.202;10.948;2022-11-20T15:48:44;31.63;;;19.80;;
26540;SDS011;14206;50.202;10.948;2022-11-20T15:51:27;25.33;;;16.33;;
26540;SDS011;14206;50.202;10.948;2022-11-20T15:53:57;22.77;;;14.63;;
26540;SDS011;14206;50.202;10.948;2022-11-20T15:56:24;24.65;;;14.77;;
26540;SDS011;14206;50.202;10.948;2022-11-20T15:58:52;21.30;;;13.73;;
26540;SDS011;14206;50.202;10.948;2022-11-20T16:01:20;20.23;;;12.60;;
26540;SDS011;14206;50.202;10.948;2022-11-20T16:03:48;18.40;;;11.82;;
26540;SDS011;14206;50.202;10.948;2022-11-20T16:06:15;22.30;;;13.98;;
26540;SDS011;14206;50.202;10.948;2022-11-20T16:08:42;21.30;;;14.35;;
26540;SDS011;14206;50.202;10.948;2022-11-20T16:11:13;21.90;;;13.68;;
26540;SDS011;14206;50.202;10.948;2022-11-20T16:13:41;21.70;;;14.05;;